Moccasin, MT (59462)

12:18 PM MST on December 06, 2016 (GMT -0700)
MesoWest | | Change Station

Elev 4255 ft 47.06 °N, 109.95 °W | Updated 6 days ago

Mostly Cloudy
Mostly Cloudy
4 °F
Feels Like -10 °F
N
8
Wind Variable Wind from NNW
Gusts mph

Today
High -- | Low -- °F
--% Chance of Precip.
Yesterday
High -- | Low -- °F
Precip. -- in
Pressure 30.32 in
Visibility 10.0 miles
Clouds Overcast 900 ft
Windchill -10 °F
Dew Point -5 °F
Humidity 64%
Rainfall in
Snow Depth Not available.
7:51 AM 4:30 PM
Waxing Crescent, 44% visible
METAR KLWT 061854Z AUTO 28007KT 10SM OVC009 M18/M21 A3006 RMK AO2 SLP267 T11831206
Pressure 30.32 in
Visibility 10.0 miles
Clouds Overcast 900 ft
Windchill -10 °F
Dew Point -5 °F
Humidity 64%
Rainfall in
Snow Depth Not available.
7:51 AM 4:30 PM
Waxing Crescent, 44% visible
METAR KLWT 061854Z AUTO 28007KT 10SM OVC009 M18/M21 A3006 RMK AO2 SLP267 T11831206

10-Day Weather Forecast

Almanac

Astronomy

Dec. 06, 2016 Rise Set
Actual Time
Civil Twilight
Nautical Twilight
Astronomical Twilight
Moon
Length of Visible Light
Length of Day
Tomorrow will be .
, % of the Moon is Illuminated

Today's Extremes

State Highs State Lows

Community

WunderPhotos

Upload Photos

1,956,015 photos uploaded!

WunderBlog® & News

Nearby

Air Quality

  Air Quality AQ Index Pollutant
Not available.

Snow Depth

Station Depth Elevation

Earthquake Activity

City Distance Mag. Time & Date
Minimum magnitude displayed is 2.5.

Coastal Water Temperatures

Place Temperature

Stations

Nearby Weather Stations

Station Location Temp. Windchill Dew Point Humidity Wind Precip. Elev Updated Type
                   

Watches & Warnings

There are currently no watches in effect.